Time;durP1;ratioP1;P1;durP2;ratioP2;P2;SDS_P1;SDS_P2;PMS_P1;PMS_P2;Temp;Humidity;BMP_temperature;BMP_pressure;BME280_temperature;BME280_humidity;BME280_pressure;Samples;Min_cycle;Max_cycle;Signal;HPM_P1;HPM_P2
2023/09/21 00:00:21;;;;;;;4.82;2.97;;;;;;;;;;5095883;28;20138;-66
2023/09/21 00:02:49;;;;;;;7.68;3.75;;;;;;;;;;5095077;28;20040;-66
2023/09/21 00:05:20;;;;;;;9.07;3.00;;;;;;;;;;5094913;28;20051;-65
2023/09/21 00:07:48;;;;;;;6.03;3.20;;;;;;;;;;5094873;28;20388;-66
2023/09/21 00:10:14;;;;;;;6.28;3.50;;;;;;;;;;5094861;28;20056;-65
2023/09/21 00:12:41;;;;;;;7.00;3.03;;;;;;;;;;5094991;28;20082;-65
2023/09/21 00:15:16;;;;;;;6.78;3.38;;;;;;;;;;5094812;28;20044;-67
2023/09/21 00:17:43;;;;;;;7.25;2.90;;;;;;;;;;5094483;28;20093;-66
2023/09/21 00:20:23;;;;;;;8.05;2.53;;;;;;;;;;5091325;28;20048;-67
2023/09/21 00:22:51;;;;;;;5.93;3.15;;;;;;;;;;5091703;28;20071;-65
2023/09/21 00:25:17;;;;;;;5.70;2.92;;;;;;;;;;5090867;28;20119;-66
2023/09/21 00:27:44;;;;;;;9.18;2.80;;;;;;;;;;5090394;28;20095;-66
2023/09/21 00:30:11;;;;;;;5.25;2.75;;;;;;;;;;5090425;28;20044;-66
2023/09/21 00:32:38;;;;;;;7.07;3.20;;;;;;;;;;5090778;28;20235;-65
2023/09/21 00:35:09;;;;;;;8.35;3.80;;;;;;;;;;5090576;28;20040;-66
2023/09/21 00:37:39;;;;;;;8.90;2.75;;;;;;;;;;5090418;28;20159;-66
2023/09/21 00:40:18;;;;;;;5.90;2.83;;;;;;;;;;5091105;28;20044;-65
2023/09/21 00:42:45;;;;;;;7.05;3.58;;;;;;;;;;5091107;28;20551;-66
2023/09/21 00:45:12;;;;;;;8.05;2.92;;;;;;;;;;5091326;28;20089;-65
2023/09/21 00:47:42;;;;;;;6.03;3.13;;;;;;;;;;5091499;28;20089;-66
2023/09/21 00:50:10;;;;;;;4.45;2.75;;;;;;;;;;5091269;28;20040;-65
2023/09/21 00:52:41;;;;;;;4.93;2.95;;;;;;;;;;5091112;28;20094;-65
2023/09/21 00:55:09;;;;;;;5.50;2.95;;;;;;;;;;5091145;28;20091;-66
2023/09/21 00:57:36;;;;;;;7.50;3.15;;;;;;;;;;5088467;28;20044;-66
2023/09/21 01:00:10;;;;;;;6.25;3.47;;;;;;;;;;5090847;28;20446;-66
2023/09/21 01:02:37;;;;;;;13.70;3.22;;;;;;;;;;5086773;28;20121;-66
2023/09/21 01:05:05;;;;;;;6.60;3.50;;;;;;;;;;5091407;28;20036;-66
2023/09/21 01:07:32;;;;;;;5.30;2.95;;;;;;;;;;5088846;28;20540;-65
2023/09/21 01:09:58;;;;;;;9.07;3.00;;;;;;;;;;5090869;28;20122;-67
2023/09/21 01:12:27;;;;;;;9.00;3.53;;;;;;;;;;5090741;28;20076;-66
2023/09/21 01:15:08;;;;;;;5.68;3.22;;;;;;;;;;5090671;28;20183;-65
2023/09/21 01:17:35;;;;;;;9.15;3.13;;;;;;;;;;5090478;28;20047;-66
2023/09/21 01:20:13;;;;;;;6.80;3.20;;;;;;;;;;5090438;28;20040;-65
2023/09/21 01:22:39;;;;;;;4.93;2.80;;;;;;;;;;5090851;28;20068;-66
2023/09/21 01:25:06;;;;;;;5.82;3.53;;;;;;;;;;5090782;28;20047;-66
2023/09/21 01:27:34;;;;;;;5.95;2.75;;;;;;;;;;5090729;28;20047;-66
2023/09/21 01:30:00;;;;;;;5.00;2.78;;;;;;;;;;5089564;28;20086;-65
2023/09/21 01:32:27;;;;;;;4.70;3.00;;;;;;;;;;5090549;28;20074;-67
2023/09/21 01:34:53;;;;;;;4.53;2.90;;;;;;;;;;5090897;28;20060;-65
2023/09/21 01:37:21;;;;;;;8.38;3.38;;;;;;;;;;5090433;28;20117;-66
2023/09/21 01:39:48;;;;;;;7.38;3.45;;;;;;;;;;5090271;28;20530;-65
2023/09/21 01:42:15;;;;;;;9.68;2.67;;;;;;;;;;5090437;28;20044;-65
2023/09/21 01:44:42;;;;;;;4.88;2.80;;;;;;;;;;5082107;28;20090;-66
2023/09/21 01:47:09;;;;;;;7.45;3.00;;;;;;;;;;5090200;28;20048;-66
2023/09/21 01:49:36;;;;;;;7.53;3.30;;;;;;;;;;5089817;28;20067;-65
2023/09/21 01:52:03;;;;;;;5.75;3.20;;;;;;;;;;5090471;28;20043;-67
2023/09/21 01:54:32;;;;;;;4.55;3.35;;;;;;;;;;5089602;28;20526;-65
2023/09/21 01:56:59;;;;;;;5.68;3.15;;;;;;;;;;5090066;28;20381;-67
2023/09/21 01:59:26;;;;;;;8.88;3.03;;;;;;;;;;5089328;28;20047;-66
2023/09/21 02:01:53;;;;;;;7.53;4.03;;;;;;;;;;5088476;28;20074;-66
2023/09/21 02:04:20;;;;;;;6.13;2.70;;;;;;;;;;5089738;28;20044;-67
2023/09/21 02:06:46;;;;;;;11.80;3.65;;;;;;;;;;5090145;28;20130;-65
2023/09/21 02:09:15;;;;;;;7.03;3.40;;;;;;;;;;5087698;28;20126;-66
2023/09/21 02:11:44;;;;;;;6.20;3.20;;;;;;;;;;5089956;28;20048;-65
2023/09/21 02:14:11;;;;;;;7.70;2.97;;;;;;;;;;5089941;28;20119;-65
2023/09/21 02:16:38;;;;;;;5.45;3.20;;;;;;;;;;5089872;28;20046;-67
2023/09/21 02:19:04;;;;;;;5.30;2.72;;;;;;;;;;5089321;28;20131;-66
2023/09/21 02:21:34;;;;;;;6.95;2.70;;;;;;;;;;5089888;28;20439;-66
2023/09/21 02:24:00;;;;;;;6.57;3.08;;;;;;;;;;5089149;28;20503;-68
2023/09/21 02:26:27;;;;;;;4.60;2.92;;;;;;;;;;5089752;28;20109;-66
2023/09/21 02:28:53;;;;;;;14.15;3.83;;;;;;;;;;5089092;28;20078;-66
2023/09/21 02:31:21;;;;;;;12.32;2.88;;;;;;;;;;5089837;28;20120;-65
2023/09/21 02:33:48;;;;;;;6.78;3.10;;;;;;;;;;5089259;28;20040;-65
2023/09/21 02:36:19;;;;;;;10.48;3.55;;;;;;;;;;5088955;28;20040;-66
2023/09/21 02:38:46;;;;;;;5.63;2.90;;;;;;;;;;5089031;28;20052;-65
2023/09/21 02:41:13;;;;;;;6.97;3.75;;;;;;;;;;5073814;28;20633;-66
2023/09/21 02:43:39;;;;;;;9.13;3.45;;;;;;;;;;5089021;28;20483;-66
2023/09/21 02:46:06;;;;;;;10.90;3.50;;;;;;;;;;5089487;28;20048;-66
2023/09/21 02:48:34;;;;;;;5.93;3.08;;;;;;;;;;5088501;28;20040;-65
2023/09/21 02:51:04;;;;;;;6.68;3.10;;;;;;;;;;5088298;28;20044;-66
2023/09/21 02:53:31;;;;;;;7.13;3.13;;;;;;;;;;5088739;28;20044;-65
2023/09/21 02:55:59;;;;;;;11.15;3.60;;;;;;;;;;5089038;28;20101;-66
2023/09/21 02:58:26;;;;;;;5.18;3.08;;;;;;;;;;5088648;28;20062;-66
2023/09/21 03:00:52;;;;;;;7.13;3.40;;;;;;;;;;5089390;28;20079;-65
2023/09/21 03:03:22;;;;;;;7.10;3.35;;;;;;;;;;5088542;28;20048;-66
2023/09/21 03:05:49;;;;;;;5.82;2.95;;;;;;;;;;5089421;28;20046;-65
2023/09/21 03:08:16;;;;;;;7.63;3.78;;;;;;;;;;5087088;28;20054;-65
2023/09/21 03:10:47;;;;;;;4.22;3.22;;;;;;;;;;5089097;28;20044;-66
2023/09/21 03:13:18;;;;;;;4.55;3.25;;;;;;;;;;5088640;28;20044;-65
2023/09/21 03:15:47;;;;;;;6.07;2.92;;;;;;;;;;5089211;28;20050;-65
2023/09/21 03:18:14;;;;;;;9.88;3.72;;;;;;;;;;5078048;28;20040;-66
2023/09/21 03:20:43;;;;;;;15.57;3.55;;;;;;;;;;5089067;28;20354;-65
2023/09/21 03:23:11;;;;;;;9.60;3.50;;;;;;;;;;5088421;28;20036;-65
2023/09/21 03:25:42;;;;;;;6.15;3.33;;;;;;;;;;5073454;28;20036;-66
2023/09/21 03:28:15;;;;;;;7.38;3.20;;;;;;;;;;5088980;28;20036;-66
2023/09/21 03:30:52;;;;;;;7.75;3.58;;;;;;;;;;5087655;28;20480;-66
2023/09/21 03:33:20;;;;;;;10.05;3.35;;;;;;;;;;5088740;28;20119;-66
2023/09/21 03:35:47;;;;;;;9.57;3.90;;;;;;;;;;5088382;28;20472;-65
2023/09/21 03:38:13;;;;;;;9.02;3.63;;;;;;;;;;5088717;28;20048;-65
2023/09/21 03:40:40;;;;;;;10.77;3.75;;;;;;;;;;5088839;28;20666;-66
2023/09/21 03:43:09;;;;;;;7.70;3.95;;;;;;;;;;5088061;28;20480;-66
2023/09/21 03:45:39;;;;;;;6.82;3.45;;;;;;;;;;5088459;28;20048;-67
2023/09/21 03:48:08;;;;;;;8.73;3.95;;;;;;;;;;5087155;28;20047;-65
2023/09/21 03:50:36;;;;;;;6.22;4.00;;;;;;;;;;5088815;28;20076;-65
2023/09/21 03:53:06;;;;;;;7.53;3.95;;;;;;;;;;5088654;28;20119;-65
2023/09/21 03:55:32;;;;;;;7.75;3.95;;;;;;;;;;5092804;28;20456;-66
2023/09/21 03:57:59;;;;;;;8.25;3.70;;;;;;;;;;5092399;28;20074;-67
2023/09/21 04:02:52;;;;;;;7.38;3.45;;;;;;;;;;5091918;28;20093;-66
2023/09/21 04:05:19;;;;;;;6.25;3.63;;;;;;;;;;5092265;28;20048;-66
2023/09/21 04:07:46;;;;;;;6.97;4.18;;;;;;;;;;5089611;28;20075;-65
2023/09/21 04:10:13;;;;;;;11.52;4.35;;;;;;;;;;5092393;28;20127;-65
2023/09/21 04:12:40;;;;;;;7.32;3.90;;;;;;;;;;5091777;28;20079;-66
2023/09/21 04:15:07;;;;;;;7.47;3.25;;;;;;;;;;5092241;28;20040;-65
2023/09/21 04:17:33;;;;;;;7.93;3.95;;;;;;;;;;5091945;28;20078;-65
2023/09/21 04:20:00;;;;;;;11.35;4.57;;;;;;;;;;5091610;28;20040;-65
2023/09/21 04:22:26;;;;;;;6.03;4.03;;;;;;;;;;5091618;28;20116;-65
2023/09/21 04:24:53;;;;;;;5.38;3.42;;;;;;;;;;5091778;28;20044;-66
2023/09/21 04:27:21;;;;;;;6.63;4.05;;;;;;;;;;5091662;28;20098;-66
2023/09/21 04:29:48;;;;;;;8.85;3.95;;;;;;;;;;5092037;28;20131;-66
2023/09/21 04:32:15;;;;;;;10.60;3.63;;;;;;;;;;5087781;28;20044;-65
2023/09/21 04:34:41;;;;;;;7.85;4.05;;;;;;;;;;5081705;28;20131;-69
2023/09/21 04:37:09;;;;;;;6.75;4.03;;;;;;;;;;5091629;28;20048;-66
2023/09/21 04:39:35;;;;;;;12.55;4.10;;;;;;;;;;5091677;28;20047;-67
2023/09/21 04:42:03;;;;;;;8.32;3.97;;;;;;;;;;5091907;28;20071;-68
2023/09/21 04:44:32;;;;;;;10.57;4.43;;;;;;;;;;5091458;28;20044;-68
2023/09/21 04:46:59;;;;;;;8.55;3.50;;;;;;;;;;5091297;28;20046;-68
2023/09/21 04:49:25;;;;;;;8.10;3.72;;;;;;;;;;5091557;28;20036;-66
2023/09/21 04:51:51;;;;;;;12.90;4.10;;;;;;;;;;5091268;28;20126;-68
2023/09/21 04:54:18;;;;;;;10.35;3.90;;;;;;;;;;5091079;28;20064;-67
2023/09/21 04:56:45;;;;;;;8.38;4.47;;;;;;;;;;5091642;28;20048;-67
2023/09/21 04:59:14;;;;;;;10.27;4.38;;;;;;;;;;5091233;28;20101;-66
2023/09/21 05:01:40;;;;;;;7.85;4.15;;;;;;;;;;5091342;28;20516;-69
2023/09/21 05:04:07;;;;;;;11.30;4.10;;;;;;;;;;5090555;28;20089;-67
2023/09/21 05:06:33;;;;;;;9.82;3.50;;;;;;;;;;5091046;28;20036;-67
2023/09/21 05:09:00;;;;;;;6.95;3.88;;;;;;;;;;5088258;28;20052;-67
2023/09/21 05:11:27;;;;;;;8.75;3.17;;;;;;;;;;5091064;28;20469;-67
2023/09/21 05:13:53;;;;;;;13.93;3.80;;;;;;;;;;5090649;28;20075;-67
2023/09/21 05:16:20;;;;;;;16.45;4.68;;;;;;;;;;5090584;28;20046;-67
2023/09/21 05:18:47;;;;;;;6.63;4.03;;;;;;;;;;5090414;28;20044;-66
2023/09/21 05:21:14;;;;;;;7.93;3.47;;;;;;;;;;5091315;28;20035;-67
2023/09/21 05:23:45;;;;;;;7.63;3.95;;;;;;;;;;5090607;28;20082;-66
2023/09/21 05:26:11;;;;;;;6.73;3.60;;;;;;;;;;5091404;28;20587;-69
2023/09/21 05:28:38;;;;;;;8.98;4.00;;;;;;;;;;5090581;28;20322;-66
2023/09/21 05:31:04;;;;;;;9.13;3.83;;;;;;;;;;5090559;28;20113;-66
2023/09/21 05:33:31;;;;;;;8.13;3.92;;;;;;;;;;5089998;28;20129;-67
2023/09/21 05:35:58;;;;;;;6.47;3.65;;;;;;;;;;5090382;28;20575;-66
2023/09/21 05:38:25;;;;;;;6.55;3.60;;;;;;;;;;5090385;28;20040;-66
2023/09/21 05:40:51;;;;;;;6.93;3.95;;;;;;;;;;5090222;28;20079;-67
2023/09/21 05:43:18;;;;;;;12.75;4.00;;;;;;;;;;5090029;28;20147;-67
2023/09/21 05:45:45;;;;;;;12.38;4.18;;;;;;;;;;5090314;28;20135;-67
2023/09/21 05:48:17;;;;;;;12.77;4.07;;;;;;;;;;5088522;28;20628;-67
2023/09/21 05:50:45;;;;;;;12.00;4.78;;;;;;;;;;5090489;28;20044;-68
2023/09/21 05:53:12;;;;;;;10.93;3.97;;;;;;;;;;5089901;28;20540;-66
2023/09/21 05:55:40;;;;;;;10.65;3.90;;;;;;;;;;5090191;28;20124;-66
2023/09/21 05:58:07;;;;;;;8.35;4.25;;;;;;;;;;5090191;28;20144;-67
2023/09/21 06:00:34;;;;;;;10.52;4.20;;;;;;;;;;5089782;28;20055;-66
2023/09/21 06:03:00;;;;;;;6.47;3.67;;;;;;;;;;5089898;28;20097;-67
2023/09/21 06:05:27;;;;;;;8.40;4.80;;;;;;;;;;5089843;28;20097;-66
2023/09/21 06:07:58;;;;;;;11.80;4.43;;;;;;;;;;5087544;28;20036;-66
2023/09/21 06:10:25;;;;;;;9.13;4.50;;;;;;;;;;5089921;28;20047;-66
2023/09/21 06:12:51;;;;;;;10.43;4.72;;;;;;;;;;5089920;28;20032;-67
2023/09/21 06:15:18;;;;;;;10.45;3.60;;;;;;;;;;5089412;28;20031;-67
2023/09/21 06:17:46;;;;;;;9.35;3.72;;;;;;;;;;5089264;28;20040;-67
2023/09/21 06:20:12;;;;;;;9.15;3.38;;;;;;;;;;5089450;28;20500;-67
2023/09/21 06:22:39;;;;;;;12.20;3.97;;;;;;;;;;5089237;28;20101;-66
2023/09/21 06:25:10;;;;;;;23.40;4.25;;;;;;;;;;5089438;28;20056;-66
2023/09/21 06:27:38;;;;;;;11.77;4.05;;;;;;;;;;5089115;28;20488;-66
2023/09/21 06:30:05;;;;;;;13.23;3.30;;;;;;;;;;5089933;28;20078;-66
2023/09/21 06:32:32;;;;;;;7.60;3.17;;;;;;;;;;5089058;28;20512;-66
2023/09/21 06:34:59;;;;;;;6.45;3.42;;;;;;;;;;5089312;28;20036;-67
2023/09/21 06:37:30;;;;;;;7.20;3.40;;;;;;;;;;5089120;28;20130;-68
2023/09/21 06:39:57;;;;;;;5.93;3.33;;;;;;;;;;5074110;28;20097;-67
2023/09/21 06:42:23;;;;;;;10.52;3.65;;;;;;;;;;5088554;28;20043;-67
2023/09/21 06:44:54;;;;;;;5.32;3.25;;;;;;;;;;5089010;28;20067;-66
2023/09/21 06:47:22;;;;;;;7.90;3.38;;;;;;;;;;5083779;28;20032;-66
2023/09/21 06:49:50;;;;;;;9.00;3.83;;;;;;;;;;5089103;28;20055;-66
2023/09/21 06:52:17;;;;;;;6.30;2.95;;;;;;;;;;5088861;28;20385;-68
2023/09/21 06:54:44;;;;;;;11.95;3.30;;;;;;;;;;5073695;28;20079;-66
2023/09/21 06:57:11;;;;;;;12.93;3.92;;;;;;;;;;5089357;28;20047;-65
2023/09/21 06:59:38;;;;;;;6.35;3.00;;;;;;;;;;5088642;28;20523;-66
2023/09/21 07:02:05;;;;;;;10.82;3.25;;;;;;;;;;5089111;28;20064;-67
2023/09/21 07:04:33;;;;;;;4.07;2.90;;;;;;;;;;5088732;28;20048;-66
2023/09/21 07:07:04;;;;;;;10.55;2.55;;;;;;;;;;5083795;28;20449;-67
2023/09/21 07:09:37;;;;;;;5.68;3.47;;;;;;;;;;5086679;28;20392;-66
2023/09/21 07:12:05;;;;;;;4.82;3.17;;;;;;;;;;5089158;28;20161;-66
2023/09/21 07:14:35;;;;;;;9.63;3.20;;;;;;;;;;5088147;28;20146;-67
2023/09/21 07:17:04;;;;;;;9.80;2.60;;;;;;;;;;5088904;28;20131;-66
2023/09/21 07:19:31;;;;;;;9.23;3.63;;;;;;;;;;5088486;28;20040;-66
2023/09/21 07:21:58;;;;;;;7.10;2.83;;;;;;;;;;5088514;28;20047;-68
2023/09/21 07:24:24;;;;;;;4.43;2.83;;;;;;;;;;5088160;28;20123;-67
2023/09/21 07:26:53;;;;;;;8.07;2.22;;;;;;;;;;5088613;28;20093;-67
2023/09/21 07:29:20;;;;;;;5.15;3.08;;;;;;;;;;5091838;28;20040;-66
2023/09/21 07:31:47;;;;;;;4.70;2.53;;;;;;;;;;5092650;28;20138;-66
2023/09/21 07:34:14;;;;;;;4.07;2.20;;;;;;;;;;5092043;28;20047;-66
2023/09/21 07:36:41;;;;;;;8.75;2.75;;;;;;;;;;5092720;28;20040;-66
2023/09/21 07:39:11;;;;;;;9.43;2.88;;;;;;;;;;5090801;28;20144;-66
2023/09/21 07:41:40;;;;;;;4.70;2.50;;;;;;;;;;5092538;28;20054;-66
2023/09/21 07:44:10;;;;;;;6.10;2.58;;;;;;;;;;5091917;28;20143;-68
2023/09/21 07:46:37;;;;;;;5.13;2.75;;;;;;;;;;5092489;28;20087;-68
2023/09/21 07:49:07;;;;;;;4.95;2.20;;;;;;;;;;5091984;28;20511;-68
2023/09/21 07:51:33;;;;;;;5.68;2.20;;;;;;;;;;5092488;28;20048;-67
2023/09/21 07:54:03;;;;;;;4.55;1.90;;;;;;;;;;5091960;28;20048;-68
2023/09/21 07:56:29;;;;;;;5.10;1.75;;;;;;;;;;5092228;28;20036;-66
2023/09/21 07:58:56;;;;;;;5.57;1.92;;;;;;;;;;5091232;28;20123;-68
2023/09/21 08:01:26;;;;;;;8.35;2.50;;;;;;;;;;5092177;28;20126;-67
2023/09/21 08:03:54;;;;;;;5.10;2.77;;;;;;;;;;5091919;28;20044;-67
2023/09/21 08:06:22;;;;;;;6.00;2.10;;;;;;;;;;5091933;28;20357;-68
2023/09/21 08:08:52;;;;;;;8.25;2.83;;;;;;;;;;5089729;28;20051;-65
2023/09/21 08:11:18;;;;;;;4.20;2.33;;;;;;;;;;5091584;28;20510;-65
2023/09/21 08:13:45;;;;;;;5.53;2.60;;;;;;;;;;5091307;28;20067;-66
2023/09/21 08:16:11;;;;;;;6.78;2.45;;;;;;;;;;5091841;28;20126;-65
2023/09/21 08:18:38;;;;;;;6.93;2.05;;;;;;;;;;5091426;28;20380;-65
2023/09/21 08:21:06;;;;;;;6.05;1.85;;;;;;;;;;5091442;28;20040;-65
2023/09/21 08:23:32;;;;;;;5.60;2.30;;;;;;;;;;5091359;28;20119;-66
2023/09/21 08:25:59;;;;;;;2.40;1.60;;;;;;;;;;5091581;28;20047;-65
2023/09/21 08:28:25;;;;;;;3.85;2.10;;;;;;;;;;5091412;28;20116;-65
2023/09/21 08:30:53;;;;;;;4.22;2.10;;;;;;;;;;5091574;28;20075;-65
2023/09/21 08:33:20;;;;;;;6.03;2.28;;;;;;;;;;5091121;28;20033;-65
2023/09/21 08:35:48;;;;;;;5.72;2.17;;;;;;;;;;5091390;28;20047;-65
2023/09/21 08:38:16;;;;;;;4.65;2.20;;;;;;;;;;5091058;28;20071;-66
2023/09/21 08:40:47;;;;;;;5.93;2.15;;;;;;;;;;5090347;28;20119;-66
2023/09/21 08:43:17;;;;;;;9.57;2.47;;;;;;;;;;5091020;28;20494;-66
2023/09/21 08:45:45;;;;;;;4.70;2.05;;;;;;;;;;5090793;28;20075;-66
2023/09/21 08:48:15;;;;;;;3.40;2.08;;;;;;;;;;5090793;28;20043;-66
2023/09/21 08:50:42;;;;;;;;;;;;;;;;;;5091874;28;20047;-65
2023/09/21 08:53:12;;;;;;;7.80;2.05;;;;;;;;;;5077569;28;19936;-66
2023/09/21 08:55:41;;;;;;;3.22;2.22;;;;;;;;;;5090769;28;20477;-65
2023/09/21 08:58:09;;;;;;;5.20;1.90;;;;;;;;;;5090050;28;20123;-67
2023/09/21 09:00:36;;;;;;;6.32;1.80;;;;;;;;;;5090594;28;20052;-65
2023/09/21 09:03:03;;;;;;;4.93;2.17;;;;;;;;;;5090076;28;20097;-64
2023/09/21 09:05:30;;;;;;;2.22;1.52;;;;;;;;;;5089095;28;20123;-66
2023/09/21 09:07:57;;;;;;;9.68;2.15;;;;;;;;;;5087234;28;20135;-65
2023/09/21 09:10:25;;;;;;;10.75;2.25;;;;;;;;;;5090183;28;20118;-65
2023/09/21 09:13:02;;;;;;;2.47;1.58;;;;;;;;;;5089799;28;20067;-66
2023/09/21 09:15:34;;;;;;;8.73;1.80;;;;;;;;;;5090534;28;20093;-66
2023/09/21 09:18:01;;;;;;;17.35;2.65;;;;;;;;;;5090131;28;20036;-66
2023/09/21 09:20:29;;;;;;;4.32;1.80;;;;;;;;;;5090205;28;20390;-65
2023/09/21 09:22:56;;;;;;;5.55;1.83;;;;;;;;;;5090259;28;20127;-65
2023/09/21 09:25:24;;;;;;;5.72;1.67;;;;;;;;;;5090346;28;20044;-66
2023/09/21 09:27:50;;;;;;;4.43;1.35;;;;;;;;;;5089508;28;20549;-66
2023/09/21 09:30:18;;;;;;;5.30;1.40;;;;;;;;;;5089915;28;20430;-66
2023/09/21 09:32:47;;;;;;;12.10;1.80;;;;;;;;;;5089532;28;20093;-66
2023/09/21 09:35:13;;;;;;;4.10;1.60;;;;;;;;;;5089980;28;20044;-66
2023/09/21 09:37:43;;;;;;;7.00;1.52;;;;;;;;;;5089824;28;20086;-65
2023/09/21 09:40:18;;;;;;;6.30;1.73;;;;;;;;;;5089805;28;20044;-65
2023/09/21 09:42:46;;;;;;;5.70;2.08;;;;;;;;;;5089215;28;20040;-65
2023/09/21 09:45:12;;;;;;;4.75;1.80;;;;;;;;;;5089823;28;20036;-66
2023/09/21 09:47:40;;;;;;;4.90;1.58;;;;;;;;;;5089337;28;20036;-66
2023/09/21 09:50:09;;;;;;;7.15;2.20;;;;;;;;;;5089647;28;20032;-66
2023/09/21 09:52:40;;;;;;;5.20;2.17;;;;;;;;;;5088176;28;20051;-65
2023/09/21 09:55:12;;;;;;;6.25;2.42;;;;;;;;;;5089150;28;20044;-66
2023/09/21 09:57:41;;;;;;;4.68;1.50;;;;;;;;;;5088917;28;20047;-66
2023/09/21 10:00:15;;;;;;;3.17;1.45;;;;;;;;;;5089158;28;20054;-68
2023/09/21 10:02:44;;;;;;;5.78;2.05;;;;;;;;;;5088997;28;20047;-65
2023/09/21 10:05:12;;;;;;;5.85;1.80;;;;;;;;;;5089159;28;20089;-66
2023/09/21 10:07:38;;;;;;;4.50;1.88;;;;;;;;;;5087120;28;20369;-65
2023/09/21 10:10:08;;;;;;;9.52;1.88;;;;;;;;;;5089742;28;20059;-68
2023/09/21 10:12:34;;;;;;;5.57;1.70;;;;;;;;;;5089031;28;20553;-65
2023/09/21 10:15:01;;;;;;;7.28;1.52;;;;;;;;;;5088755;28;20787;-65
2023/09/21 10:17:28;;;;;;;3.05;1.25;;;;;;;;;;5088777;28;20044;-64
2023/09/21 10:20:18;;;;;;;3.25;1.77;;;;;;;;;;5089079;28;20483;-65
2023/09/21 10:22:45;;;;;;;5.30;1.77;;;;;;;;;;5088843;28;20458;-65
2023/09/21 10:25:12;;;;;;;8.48;1.77;;;;;;;;;;5089066;28;20044;-67
2023/09/21 10:27:39;;;;;;;4.18;1.58;;;;;;;;;;5089110;28;20032;-65
2023/09/21 10:30:08;;;;;;;5.68;1.40;;;;;;;;;;5089088;28;20135;-66
2023/09/21 10:32:43;;;;;;;11.63;1.90;;;;;;;;;;5088614;28;20048;-66
2023/09/21 10:35:18;;;;;;;2.88;1.20;;;;;;;;;;5089159;28;20080;-66
2023/09/21 10:37:49;;;;;;;6.90;1.67;;;;;;;;;;5088709;28;20443;-66
2023/09/21 10:40:29;;;;;;;3.65;1.05;;;;;;;;;;5088909;28;20070;-68
2023/09/21 10:42:56;;;;;;;3.88;1.27;;;;;;;;;;5088460;28;20504;-67
2023/09/21 10:45:22;;;;;;;3.85;1.25;;;;;;;;;;5088987;28;20059;-65
2023/09/21 10:47:51;;;;;;;6.57;1.38;;;;;;;;;;5088326;28;20040;-65
2023/09/21 10:50:23;;;;;;;3.10;1.15;;;;;;;;;;5088979;28;20392;-65
2023/09/21 10:52:55;;;;;;;6.10;1.33;;;;;;;;;;5088287;28;20032;-65
2023/09/21 10:55:22;;;;;;;2.63;1.10;;;;;;;;;;5088500;28;20048;-65
2023/09/21 10:57:49;;;;;;;3.75;1.27;;;;;;;;;;5088351;28;20040;-66
2023/09/21 11:00:18;;;;;;;3.53;1.98;;;;;;;;;;5088321;28;20052;-66
2023/09/21 11:02:46;;;;;;;2.53;0.95;;;;;;;;;;5088010;28;20468;-65
2023/09/21 11:05:16;;;;;;;3.60;0.90;;;;;;;;;;5088177;28;20054;-66
2023/09/21 11:07:47;;;;;;;4.88;1.20;;;;;;;;;;5088237;28;20062;-66
2023/09/21 11:10:14;;;;;;;6.55;1.13;;;;;;;;;;5088389;28;20510;-64
2023/09/21 11:12:41;;;;;;;6.28;2.00;;;;;;;;;;5088415;28;20388;-66
2023/09/21 11:15:16;;;;;;;2.35;1.20;;;;;;;;;;5088067;28;20044;-66
2023/09/21 11:17:44;;;;;;;2.65;1.13;;;;;;;;;;5088231;28;20036;-66
2023/09/21 11:20:12;;;;;;;5.68;1.27;;;;;;;;;;5088722;28;20048;-67
2023/09/21 11:22:39;;;;;;;5.75;0.90;;;;;;;;;;5087792;28;20105;-66
2023/09/21 11:25:06;;;;;;;3.97;1.80;;;;;;;;;;5087967;28;20125;-66
2023/09/21 11:27:35;;;;;;;4.65;1.30;;;;;;;;;;5088277;28;20077;-67
2023/09/21 11:30:05;;;;;;;4.85;0.93;;;;;;;;;;5088144;28;20036;-70
2023/09/21 11:32:31;;;;;;;;;;;;;;;;;;5088073;28;20044;-66
2023/09/21 11:34:58;;;;;;;4.85;1.20;;;;;;;;;;5088344;28;19976;-66
2023/09/21 11:37:28;;;;;;;1.70;0.90;;;;;;;;;;5087867;28;20449;-67
2023/09/21 11:39:55;;;;;;;6.47;1.65;;;;;;;;;;5088446;28;20500;-66
2023/09/21 11:42:23;;;;;;;7.35;1.42;;;;;;;;;;5088286;28;20135;-66
2023/09/21 11:44:50;;;;;;;4.95;1.23;;;;;;;;;;5087792;28;20122;-68
2023/09/21 11:47:17;;;;;;;3.92;0.80;;;;;;;;;;5088359;28;20388;-67
2023/09/21 11:49:44;;;;;;;2.45;0.90;;;;;;;;;;5087988;28;20052;-68
2023/09/21 11:52:13;;;;;;;2.05;1.00;;;;;;;;;;5088352;28;20050;-67
2023/09/21 11:54:41;;;;;;;6.50;1.63;;;;;;;;;;5087620;28;20052;-66
2023/09/21 11:57:09;;;;;;;13.82;1.35;;;;;;;;;;5088345;28;20032;-69
2023/09/21 11:59:39;;;;;;;5.65;1.10;;;;;;;;;;5087100;28;20060;-68
2023/09/21 12:02:09;;;;;;;2.88;0.98;;;;;;;;;;5083627;28;20101;-68
2023/09/21 12:04:37;;;;;;;4.05;1.45;;;;;;;;;;5086756;28;20071;-68
2023/09/21 12:07:10;;;;;;;2.20;0.90;;;;;;;;;;5086714;28;20036;-67
2023/09/21 12:09:40;;;;;;;2.45;1.20;;;;;;;;;;5085064;28;20444;-67
2023/09/21 12:12:07;;;;;;;6.57;1.23;;;;;;;;;;5084829;28;20051;-67
2023/09/21 12:14:34;;;;;;;3.05;1.23;;;;;;;;;;5086350;28;20048;-67
2023/09/21 12:17:11;;;;;;;4.88;0.80;;;;;;;;;;5089660;28;20044;-68
2023/09/21 12:19:39;;;;;;;4.85;1.13;;;;;;;;;;5089738;28;20389;-69
2023/09/21 12:22:06;;;;;;;7.25;1.33;;;;;;;;;;5089662;28;20044;-68
2023/09/21 12:24:34;;;;;;;3.70;1.75;;;;;;;;;;5089613;28;20056;-69
2023/09/21 12:27:03;;;;;;;4.55;0.93;;;;;;;;;;5086674;28;20036;-68
2023/09/21 12:29:29;;;;;;;2.90;0.95;;;;;;;;;;5090358;28;20040;-68
2023/09/21 12:31:58;;;;;;;1.98;1.00;;;;;;;;;;5089890;28;20063;-68
2023/09/21 12:34:26;;;;;;;3.05;0.60;;;;;;;;;;5089384;28;20036;-65
2023/09/21 12:36:56;;;;;;;4.43;1.15;;;;;;;;;;5085626;28;20133;-66
2023/09/21 12:39:24;;;;;;;10.60;0.95;;;;;;;;;;5086581;28;20066;-64
2023/09/21 12:41:51;;;;;;;4.70;1.23;;;;;;;;;;5088111;28;20165;-65
2023/09/21 12:44:19;;;;;;;8.15;1.08;;;;;;;;;;5087688;28;20181;-65
2023/09/21 12:46:45;;;;;;;6.13;1.17;;;;;;;;;;5089746;28;20047;-65
2023/09/21 12:49:13;;;;;;;2.45;1.15;;;;;;;;;;5088432;28;20196;-65
2023/09/21 12:51:40;;;;;;;3.20;1.08;;;;;;;;;;5089914;28;20087;-64
2023/09/21 12:54:07;;;;;;;7.35;1.10;;;;;;;;;;5089802;28;20050;-65
2023/09/21 12:56:34;;;;;;;2.63;1.08;;;;;;;;;;5089403;28;20704;-64
2023/09/21 12:59:00;;;;;;;7.25;1.30;;;;;;;;;;5094636;28;20048;-65
2023/09/21 13:01:28;;;;;;;7.13;0.90;;;;;;;;;;5087413;28;20056;-68
2023/09/21 13:03:55;;;;;;;3.53;1.17;;;;;;;;;;5088364;28;20044;-67
2023/09/21 13:06:22;;;;;;;3.00;0.88;;;;;;;;;;5088980;28;20598;-66
2023/09/21 13:08:49;;;;;;;2.40;0.80;;;;;;;;;;5090276;28;20040;-70
2023/09/21 13:11:15;;;;;;;3.55;1.15;;;;;;;;;;5089391;28;20109;-69
2023/09/21 13:13:46;;;;;;;6.15;1.13;;;;;;;;;;5085965;28;20044;-69
2023/09/21 13:16:13;;;;;;;2.72;0.82;;;;;;;;;;5088902;28;20047;-69
2023/09/21 13:18:40;;;;;;;4.32;1.20;;;;;;;;;;5088630;28;20545;-70
2023/09/21 13:21:08;;;;;;;4.40;1.10;;;;;;;;;;5090079;28;20071;-72
2023/09/21 13:23:37;;;;;;;3.55;1.23;;;;;;;;;;5095213;28;20050;-68
2023/09/21 13:26:04;;;;;;;3.35;1.63;;;;;;;;;;5083520;28;20076;-68
2023/09/21 13:28:31;;;;;;;3.05;0.98;;;;;;;;;;5094106;28;20083;-68
2023/09/21 13:30:58;;;;;;;5.30;0.77;;;;;;;;;;5087845;28;20070;-66
2023/09/21 13:33:25;;;;;;;4.35;1.45;;;;;;;;;;5087727;28;20043;-65
2023/09/21 13:35:52;;;;;;;73.40;6.85;;;;;;;;;;5086313;28;20044;-65
2023/09/21 13:38:21;;;;;;;10.10;1.60;;;;;;;;;;5088506;28;20043;-65
2023/09/21 13:40:48;;;;;;;2.35;1.00;;;;;;;;;;5086923;28;20172;-68
2023/09/21 13:43:15;;;;;;;3.72;1.00;;;;;;;;;;5089100;28;20423;-66
2023/09/21 13:45:41;;;;;;;3.60;1.25;;;;;;;;;;5090157;28;20052;-66
2023/09/21 13:48:09;;;;;;;8.48;1.33;;;;;;;;;;5085482;28;20126;-66
2023/09/21 13:50:39;;;;;;;5.63;1.00;;;;;;;;;;5074570;28;20037;-66
2023/09/21 13:53:06;;;;;;;4.97;1.13;;;;;;;;;;5087824;28;20149;-65
2023/09/21 13:55:34;;;;;;;2.72;1.20;;;;;;;;;;5087569;28;20059;-63
2023/09/21 13:58:00;;;;;;;3.15;1.08;;;;;;;;;;5087586;28;20047;-65
2023/09/21 14:00:30;;;;;;;2.28;1.08;;;;;;;;;;5087737;28;20484;-62
2023/09/21 14:02:58;;;;;;;2.88;1.20;;;;;;;;;;5087899;28;20105;-67
2023/09/21 14:05:26;;;;;;;3.85;1.00;;;;;;;;;;5087370;28;20089;-62
2023/09/21 14:07:53;;;;;;;4.13;1.00;;;;;;;;;;5084540;28;20131;-66
2023/09/21 14:10:20;;;;;;;5.03;1.10;;;;;;;;;;5079034;28;20048;-66
2023/09/21 14:12:49;;;;;;;6.40;1.02;;;;;;;;;;5082983;28;20067;-61
2023/09/21 14:15:17;;;;;;;5.45;0.88;;;;;;;;;;5087900;28;20038;-62
2023/09/21 14:17:44;;;;;;;4.72;1.58;;;;;;;;;;5088685;28;20448;-64
2023/09/21 14:20:11;;;;;;;2.08;0.80;;;;;;;;;;5088804;28;20043;-65
2023/09/21 14:22:38;;;;;;;2.63;1.23;;;;;;;;;;5088828;28;20036;-61
2023/09/21 14:25:06;;;;;;;4.47;0.85;;;;;;;;;;5095182;28;20044;-66
2023/09/21 14:27:34;;;;;;;1.27;0.55;;;;;;;;;;5097035;28;20043;-64
2023/09/21 14:30:01;;;;;;;2.55;1.08;;;;;;;;;;5088553;28;20071;-63
2023/09/21 14:32:29;;;;;;;2.08;0.88;;;;;;;;;;5082279;28;20492;-62
2023/09/21 14:34:55;;;;;;;2.90;1.13;;;;;;;;;;5087132;28;20067;-63
2023/09/21 14:37:23;;;;;;;4.18;1.00;;;;;;;;;;5084929;28;20380;-68
2023/09/21 14:39:51;;;;;;;3.75;1.05;;;;;;;;;;5087714;28;20048;-65
2023/09/21 14:42:18;;;;;;;2.90;0.90;;;;;;;;;;5087656;28;20242;-66
2023/09/21 14:44:45;;;;;;;5.15;1.60;;;;;;;;;;5076489;28;20138;-67
2023/09/21 14:47:11;;;;;;;3.35;1.08;;;;;;;;;;5084111;28;20443;-67